Washington, GA

9:09 PM EDT on March 27, 2015 (GMT -0400)
Washington-Wilkes County | | Change Station
CLOSE
Current Station
Airport
Location: Washington,
Elevation: 646 ft
Nearby Weather Stations
Active Advisory: Freeze Watch

Elev 646 ft 33.78 °N, 82.82 °W | Updated 14 minutes ago

Clear
Clear
54 °F
Feels Like 54 °F
N
4
Wind Variable Wind from North

Today
High -- | Low -- °F
--% Chance of Precip.
Yesterday
High -- | Low -- °F
Precip. -- in
7:25 AM 7:47 PM
First Quarter, 57% visible
Pressure 29.85 in
Visibility 10.0 miles
Clouds Clear
Dew Point 45 °F
Humidity 72%
Rainfall 0.00 in
Snow Depth Not available.
UV 0 out of 12
Pollen 9.20 out of 12
Air Quality Not available.
Flu Activity Not available.
METAR KIIY 280055Z AUTO 35003KT 10SM CLR 12/07 A2985 RMK AO2

More Conditions Fewer Conditions

Pressure 29.85 in
Visibility 10.0 miles
Clouds Clear
Dew Point 45 °F
Humidity 72%
Rainfall 0.00 in
Snow Depth Not available.
UV 0 out of 12
Pollen 9.20 out of 12
Air Quality Not available.
Flu Activity Not available.
METAR KIIY 280055Z AUTO 35003KT 10SM CLR 12/07 A2985 RMK AO2

More Conditions Fewer Conditions

10-Day Weather Forecast

Almanac

Astronomy

Mar. 27, 2015 Rise Set
Actual Time
Civil Twilight
Nautical Twilight
Astronomical Twilight
Moon
Length of Visible Light
Length of Day
Tomorrow will be .
, % of the Moon is Illuminated

Today's Extremes

State Highs State Lows

Community

WunderPhotos

Upload Photos

1,808,901 photos uploaded!

WunderBlogs® & News

Nearby

Air Quality

  Air Quality AQ Index Pollutant
Not available.

Snow Depth

Station Depth Elevation

Earthquake Activity

City Distance Mag. Time & Date
Minimum magnitude displayed is 2.5.

Coastal Water Temperatures

Place Temperature

Stations

Nearby Weather Stations

Station Location Temp. Windchill Dew Point Humidity Wind Precip. Elev Updated Type
                   
Freeze Watch
Statement as of 3:09 PM EDT on March 27, 2015

... Freeze watch remains in effect from late Saturday night
through Sunday morning...

* locations... north of a line from Hamilton to Macon to Louisville.

* Temperatures... in the lower 30s.

* Timing... late Saturday night and early Sunday morning.

* Impacts... freezing temperatures will damage tender vegetation.

Precautionary/preparedness actions...

A freeze watch means conditions are favorable for a freeze event
in and close to the watch area. Those with agricultural interests
in the watch area should make preparations to protect sensitive
vegetation and Young trees.